sensor_id;sensor_type;location;lat;lon;timestamp;P1;durP1;ratioP1;P2;durP2;ratioP2
19889;SDS011;10107;51.198;6.824;2023-08-12T00:00:08;17.80;;;11.90;;
19889;SDS011;10107;51.198;6.824;2023-08-12T00:04:16;18.30;;;11.93;;
19889;SDS011;10107;51.198;6.824;2023-08-12T00:08:19;14.55;;;11.40;;
19889;SDS011;10107;51.198;6.824;2023-08-12T00:12:21;18.05;;;12.52;;
19889;SDS011;10107;51.198;6.824;2023-08-12T00:16:23;19.38;;;12.60;;
19889;SDS011;10107;51.198;6.824;2023-08-12T00:20:25;16.70;;;11.40;;
19889;SDS011;10107;51.198;6.824;2023-08-12T00:24:28;16.67;;;11.43;;
19889;SDS011;10107;51.198;6.824;2023-08-12T00:28:29;17.63;;;12.23;;
19889;SDS011;10107;51.198;6.824;2023-08-12T00:32:31;19.80;;;13.68;;
19889;SDS011;10107;51.198;6.824;2023-08-12T00:36:33;16.15;;;12.27;;
19889;SDS011;10107;51.198;6.824;2023-08-12T00:40:37;23.20;;;15.07;;
19889;SDS011;10107;51.198;6.824;2023-08-12T00:44:38;23.23;;;14.73;;
19889;SDS011;10107;51.198;6.824;2023-08-12T00:48:41;16.73;;;12.43;;
19889;SDS011;10107;51.198;6.824;2023-08-12T00:52:45;19.48;;;13.45;;
19889;SDS011;10107;51.198;6.824;2023-08-12T00:56:49;16.75;;;11.75;;
19889;SDS011;10107;51.198;6.824;2023-08-12T01:00:51;17.85;;;12.60;;
19889;SDS011;10107;51.198;6.824;2023-08-12T01:04:52;22.42;;;14.77;;
19889;SDS011;10107;51.198;6.824;2023-08-12T01:08:54;22.33;;;16.13;;
19889;SDS011;10107;51.198;6.824;2023-08-12T01:12:59;23.05;;;15.70;;
19889;SDS011;10107;51.198;6.824;2023-08-12T01:17:09;23.43;;;16.00;;
19889;SDS011;10107;51.198;6.824;2023-08-12T01:21:15;22.42;;;15.45;;
19889;SDS011;10107;51.198;6.824;2023-08-12T01:25:19;18.05;;;13.82;;
19889;SDS011;10107;51.198;6.824;2023-08-12T01:29:21;22.10;;;14.98;;
19889;SDS011;10107;51.198;6.824;2023-08-12T01:33:24;17.85;;;13.18;;
19889;SDS011;10107;51.198;6.824;2023-08-12T01:37:31;19.10;;;13.43;;
19889;SDS011;10107;51.198;6.824;2023-08-12T01:41:35;17.13;;;12.80;;
19889;SDS011;10107;51.198;6.824;2023-08-12T01:45:38;17.67;;;13.10;;
19889;SDS011;10107;51.198;6.824;2023-08-12T01:49:39;19.45;;;13.73;;
19889;SDS011;10107;51.198;6.824;2023-08-12T01:53:41;16.73;;;10.85;;
19889;SDS011;10107;51.198;6.824;2023-08-12T01:57:45;14.55;;;10.55;;
19889;SDS011;10107;51.198;6.824;2023-08-12T02:01:47;13.93;;;10.77;;
19889;SDS011;10107;51.198;6.824;2023-08-12T02:05:48;17.77;;;13.02;;
19889;SDS011;10107;51.198;6.824;2023-08-12T02:09:50;17.63;;;11.98;;
19889;SDS011;10107;51.198;6.824;2023-08-12T02:13:53;15.10;;;10.60;;
19889;SDS011;10107;51.198;6.824;2023-08-12T02:17:55;16.83;;;11.30;;
19889;SDS011;10107;51.198;6.824;2023-08-12T02:21:57;16.17;;;11.95;;
19889;SDS011;10107;51.198;6.824;2023-08-12T02:26:00;16.23;;;12.02;;
19889;SDS011;10107;51.198;6.824;2023-08-12T02:30:06;17.75;;;11.32;;
19889;SDS011;10107;51.198;6.824;2023-08-12T02:34:08;15.23;;;10.73;;
19889;SDS011;10107;51.198;6.824;2023-08-12T02:38:10;16.20;;;11.00;;
19889;SDS011;10107;51.198;6.824;2023-08-12T02:42:12;12.55;;;8.88;;
19889;SDS011;10107;51.198;6.824;2023-08-12T02:46:15;12.45;;;8.55;;
19889;SDS011;10107;51.198;6.824;2023-08-12T02:50:18;11.65;;;8.40;;
19889;SDS011;10107;51.198;6.824;2023-08-12T02:54:21;11.70;;;8.15;;
19889;SDS011;10107;51.198;6.824;2023-08-12T02:58:23;9.80;;;7.35;;
19889;SDS011;10107;51.198;6.824;2023-08-12T03:02:27;14.60;;;9.30;;
19889;SDS011;10107;51.198;6.824;2023-08-12T03:06:29;11.02;;;8.00;;
19889;SDS011;10107;51.198;6.824;2023-08-12T03:10:32;12.23;;;9.05;;
19889;SDS011;10107;51.198;6.824;2023-08-12T03:14:35;10.00;;;7.80;;
19889;SDS011;10107;51.198;6.824;2023-08-12T03:18:38;14.85;;;9.85;;
19889;SDS011;10107;51.198;6.824;2023-08-12T03:22:40;16.33;;;11.27;;
19889;SDS011;10107;51.198;6.824;2023-08-12T03:26:42;12.80;;;8.90;;
19889;SDS011;10107;51.198;6.824;2023-08-12T03:30:49;13.35;;;9.25;;
19889;SDS011;10107;51.198;6.824;2023-08-12T03:34:54;13.77;;;9.40;;
19889;SDS011;10107;51.198;6.824;2023-08-12T03:38:57;14.95;;;10.82;;
19889;SDS011;10107;51.198;6.824;2023-08-12T03:43:03;12.60;;;9.05;;
19889;SDS011;10107;51.198;6.824;2023-08-12T03:47:05;18.80;;;12.25;;
19889;SDS011;10107;51.198;6.824;2023-08-12T03:51:11;25.50;;;18.60;;
19889;SDS011;10107;51.198;6.824;2023-08-12T03:55:12;25.35;;;18.35;;
19889;SDS011;10107;51.198;6.824;2023-08-12T03:59:15;29.98;;;20.15;;
19889;SDS011;10107;51.198;6.824;2023-08-12T04:03:20;23.00;;;16.30;;
19889;SDS011;10107;51.198;6.824;2023-08-12T04:07:23;21.42;;;14.98;;
19889;SDS011;10107;51.198;6.824;2023-08-12T04:11:24;24.42;;;16.70;;
19889;SDS011;10107;51.198;6.824;2023-08-12T04:15:26;20.30;;;14.68;;
19889;SDS011;10107;51.198;6.824;2023-08-12T04:19:29;16.23;;;12.30;;
19889;SDS011;10107;51.198;6.824;2023-08-12T04:23:34;19.77;;;13.20;;
19889;SDS011;10107;51.198;6.824;2023-08-12T04:27:36;13.18;;;10.07;;
19889;SDS011;10107;51.198;6.824;2023-08-12T04:31:38;13.07;;;10.38;;
19889;SDS011;10107;51.198;6.824;2023-08-12T04:35:42;13.73;;;9.95;;
19889;SDS011;10107;51.198;6.824;2023-08-12T04:39:47;13.88;;;9.93;;
19889;SDS011;10107;51.198;6.824;2023-08-12T04:43:48;13.57;;;10.00;;
19889;SDS011;10107;51.198;6.824;2023-08-12T04:47:50;13.50;;;8.85;;
19889;SDS011;10107;51.198;6.824;2023-08-12T04:51:53;13.03;;;9.03;;
19889;SDS011;10107;51.198;6.824;2023-08-12T04:55:57;11.27;;;8.15;;
19889;SDS011;10107;51.198;6.824;2023-08-12T04:59:58;10.80;;;7.80;;
19889;SDS011;10107;51.198;6.824;2023-08-12T05:04:00;13.05;;;8.43;;
19889;SDS011;10107;51.198;6.824;2023-08-12T05:08:02;11.77;;;7.88;;
19889;SDS011;10107;51.198;6.824;2023-08-12T05:12:09;15.07;;;11.15;;
19889;SDS011;10107;51.198;6.824;2023-08-12T05:20:13;14.32;;;9.95;;
19889;SDS011;10107;51.198;6.824;2023-08-12T05:24:15;15.68;;;11.02;;
19889;SDS011;10107;51.198;6.824;2023-08-12T05:28:18;16.63;;;11.52;;
19889;SDS011;10107;51.198;6.824;2023-08-12T05:32:20;15.27;;;9.70;;
19889;SDS011;10107;51.198;6.824;2023-08-12T05:36:21;13.25;;;9.95;;
19889;SDS011;10107;51.198;6.824;2023-08-12T05:40:23;13.63;;;9.75;;
19889;SDS011;10107;51.198;6.824;2023-08-12T05:44:26;10.82;;;9.00;;
19889;SDS011;10107;51.198;6.824;2023-08-12T05:48:28;12.85;;;8.40;;
19889;SDS011;10107;51.198;6.824;2023-08-12T05:52:30;9.63;;;7.80;;
19889;SDS011;10107;51.198;6.824;2023-08-12T05:56:32;11.13;;;8.85;;
19889;SDS011;10107;51.198;6.824;2023-08-12T06:00:35;11.48;;;8.60;;
19889;SDS011;10107;51.198;6.824;2023-08-12T06:04:36;8.57;;;7.15;;
19889;SDS011;10107;51.198;6.824;2023-08-12T06:08:38;9.15;;;7.38;;
19889;SDS011;10107;51.198;6.824;2023-08-12T06:12:40;12.23;;;8.45;;
19889;SDS011;10107;51.198;6.824;2023-08-12T06:16:43;9.43;;;8.18;;
19889;SDS011;10107;51.198;6.824;2023-08-12T06:20:45;10.95;;;9.43;;
19889;SDS011;10107;51.198;6.824;2023-08-12T06:24:47;11.80;;;8.68;;
19889;SDS011;10107;51.198;6.824;2023-08-12T06:28:49;8.77;;;7.80;;
19889;SDS011;10107;51.198;6.824;2023-08-12T06:32:52;10.40;;;7.85;;
19889;SDS011;10107;51.198;6.824;2023-08-12T06:36:53;13.25;;;8.93;;
19889;SDS011;10107;51.198;6.824;2023-08-12T06:40:55;10.23;;;8.23;;
19889;SDS011;10107;51.198;6.824;2023-08-12T06:44:57;11.52;;;9.18;;
19889;SDS011;10107;51.198;6.824;2023-08-12T06:49:01;10.25;;;8.18;;
19889;SDS011;10107;51.198;6.824;2023-08-12T06:53:03;14.07;;;8.23;;
19889;SDS011;10107;51.198;6.824;2023-08-12T06:57:05;11.25;;;8.38;;
19889;SDS011;10107;51.198;6.824;2023-08-12T07:01:06;9.73;;;7.47;;
19889;SDS011;10107;51.198;6.824;2023-08-12T07:05:09;10.00;;;8.35;;
19889;SDS011;10107;51.198;6.824;2023-08-12T07:09:11;9.43;;;7.97;;
19889;SDS011;10107;51.198;6.824;2023-08-12T07:13:13;8.98;;;7.75;;
19889;SDS011;10107;51.198;6.824;2023-08-12T07:17:14;9.57;;;8.43;;
19889;SDS011;10107;51.198;6.824;2023-08-12T07:21:17;10.48;;;7.55;;
19889;SDS011;10107;51.198;6.824;2023-08-12T07:25:19;7.85;;;6.90;;
19889;SDS011;10107;51.198;6.824;2023-08-12T07:29:21;7.32;;;6.13;;
19889;SDS011;10107;51.198;6.824;2023-08-12T07:33:22;9.40;;;7.65;;
19889;SDS011;10107;51.198;6.824;2023-08-12T07:37:26;8.80;;;7.90;;
19889;SDS011;10107;51.198;6.824;2023-08-12T07:41:28;6.88;;;5.55;;
19889;SDS011;10107;51.198;6.824;2023-08-12T07:45:29;7.72;;;6.82;;
19889;SDS011;10107;51.198;6.824;2023-08-12T07:49:31;7.75;;;6.90;;
19889;SDS011;10107;51.198;6.824;2023-08-12T07:53:34;8.88;;;6.82;;
19889;SDS011;10107;51.198;6.824;2023-08-12T07:57:36;6.45;;;5.55;;
19889;SDS011;10107;51.198;6.824;2023-08-12T08:01:37;7.60;;;6.30;;
19889;SDS011;10107;51.198;6.824;2023-08-12T08:05:39;6.63;;;5.90;;
19889;SDS011;10107;51.198;6.824;2023-08-12T08:09:43;8.67;;;6.27;;
19889;SDS011;10107;51.198;6.824;2023-08-12T08:13:45;7.97;;;6.45;;
19889;SDS011;10107;51.198;6.824;2023-08-12T08:17:47;6.43;;;5.40;;
19889;SDS011;10107;51.198;6.824;2023-08-12T08:21:48;11.40;;;7.20;;
19889;SDS011;10107;51.198;6.824;2023-08-12T08:25:51;7.07;;;6.03;;
19889;SDS011;10107;51.198;6.824;2023-08-12T08:29:53;6.00;;;5.22;;
19889;SDS011;10107;51.198;6.824;2023-08-12T08:33:55;5.32;;;4.80;;
19889;SDS011;10107;51.198;6.824;2023-08-12T08:37:56;7.15;;;4.72;;
19889;SDS011;10107;51.198;6.824;2023-08-12T08:42:00;7.38;;;5.25;;
19889;SDS011;10107;51.198;6.824;2023-08-12T08:46:03;6.68;;;4.60;;
19889;SDS011;10107;51.198;6.824;2023-08-12T08:54:09;5.25;;;3.97;;
19889;SDS011;10107;51.198;6.824;2023-08-12T08:58:14;6.10;;;4.15;;
19889;SDS011;10107;51.198;6.824;2023-08-12T09:02:16;3.50;;;3.20;;
19889;SDS011;10107;51.198;6.824;2023-08-12T09:06:18;5.85;;;3.40;;
19889;SDS011;10107;51.198;6.824;2023-08-12T09:10:23;4.57;;;3.30;;
19889;SDS011;10107;51.198;6.824;2023-08-12T09:14:29;4.25;;;3.10;;
19889;SDS011;10107;51.198;6.824;2023-08-12T09:18:31;6.43;;;3.20;;
19889;SDS011;10107;51.198;6.824;2023-08-12T09:22:33;3.97;;;3.05;;
19889;SDS011;10107;51.198;6.824;2023-08-12T09:26:34;4.60;;;2.85;;
19889;SDS011;10107;51.198;6.824;2023-08-12T09:30:38;3.30;;;2.50;;
19889;SDS011;10107;51.198;6.824;2023-08-12T09:34:45;5.75;;;2.60;;
19889;SDS011;10107;51.198;6.824;2023-08-12T09:38:47;3.45;;;2.60;;
19889;SDS011;10107;51.198;6.824;2023-08-12T09:42:49;4.45;;;2.45;;
19889;SDS011;10107;51.198;6.824;2023-08-12T09:46:57;3.97;;;2.65;;
19889;SDS011;10107;51.198;6.824;2023-08-12T09:50:59;2.40;;;2.20;;
19889;SDS011;10107;51.198;6.824;2023-08-12T09:55:01;4.32;;;2.45;;
19889;SDS011;10107;51.198;6.824;2023-08-12T09:59:05;3.35;;;2.25;;
19889;SDS011;10107;51.198;6.824;2023-08-12T10:03:10;3.67;;;2.10;;
19889;SDS011;10107;51.198;6.824;2023-08-12T10:07:15;2.78;;;2.15;;
19889;SDS011;10107;51.198;6.824;2023-08-12T10:11:33;3.13;;;2.15;;
19889;SDS011;10107;51.198;6.824;2023-08-12T10:15:36;3.88;;;2.17;;
19889;SDS011;10107;51.198;6.824;2023-08-12T10:19:42;2.22;;;2.00;;
19889;SDS011;10107;51.198;6.824;2023-08-12T10:23:45;2.83;;;1.70;;
19889;SDS011;10107;51.198;6.824;2023-08-12T10:27:48;1.60;;;1.50;;
19889;SDS011;10107;51.198;6.824;2023-08-12T10:31:50;2.10;;;1.63;;
19889;SDS011;10107;51.198;6.824;2023-08-12T10:35:54;2.35;;;1.70;;
19889;SDS011;10107;51.198;6.824;2023-08-12T10:39:57;1.65;;;1.48;;
19889;SDS011;10107;51.198;6.824;2023-08-12T10:43:59;1.63;;;1.30;;
19889;SDS011;10107;51.198;6.824;2023-08-12T10:48:09;1.10;;;1.00;;
19889;SDS011;10107;51.198;6.824;2023-08-12T10:52:28;1.55;;;1.17;;
19889;SDS011;10107;51.198;6.824;2023-08-12T10:56:30;1.52;;;1.10;;
19889;SDS011;10107;51.198;6.824;2023-08-12T11:00:57;1.20;;;1.10;;
19889;SDS011;10107;51.198;6.824;2023-08-12T11:05:00;1.98;;;1.08;;
19889;SDS011;10107;51.198;6.824;2023-08-12T11:09:05;1.75;;;1.25;;
19889;SDS011;10107;51.198;6.824;2023-08-12T11:13:44;1.70;;;1.15;;
19889;SDS011;10107;51.198;6.824;2023-08-12T11:18:13;3.30;;;1.08;;
19889;SDS011;10107;51.198;6.824;2023-08-12T11:22:43;1.20;;;1.10;;
19889;SDS011;10107;51.198;6.824;2023-08-12T11:27:12;2.53;;;1.20;;
19889;SDS011;10107;51.198;6.824;2023-08-12T11:31:40;1.98;;;1.00;;
19889;SDS011;10107;51.198;6.824;2023-08-12T11:36:31;2.75;;;0.80;;
19889;SDS011;10107;51.198;6.824;2023-08-12T11:41:22;1.27;;;0.82;;
19889;SDS011;10107;51.198;6.824;2023-08-12T11:54:40;1.80;;;1.23;;
19889;SDS011;10107;51.198;6.824;2023-08-12T11:58:42;1.17;;;1.05;;
19889;SDS011;10107;51.198;6.824;2023-08-12T12:02:45;0.98;;;0.90;;
19889;SDS011;10107;51.198;6.824;2023-08-12T12:06:49;2.92;;;1.30;;
19889;SDS011;10107;51.198;6.824;2023-08-12T12:10:52;2.78;;;1.00;;
19889;SDS011;10107;51.198;6.824;2023-08-12T12:14:56;1.00;;;0.90;;
19889;SDS011;10107;51.198;6.824;2023-08-12T12:18:57;1.20;;;1.08;;
19889;SDS011;10107;51.198;6.824;2023-08-12T12:23:04;1.20;;;1.10;;
19889;SDS011;10107;51.198;6.824;2023-08-12T12:27:08;1.05;;;0.95;;
19889;SDS011;10107;51.198;6.824;2023-08-12T12:31:10;1.00;;;0.95;;
19889;SDS011;10107;51.198;6.824;2023-08-12T12:35:11;0.93;;;0.85;;
19889;SDS011;10107;51.198;6.824;2023-08-12T12:39:13;1.08;;;0.93;;
19889;SDS011;10107;51.198;6.824;2023-08-12T12:43:16;0.75;;;0.75;;
19889;SDS011;10107;51.198;6.824;2023-08-12T12:47:18;1.10;;;1.02;;
19889;SDS011;10107;51.198;6.824;2023-08-12T12:51:20;1.07;;;0.97;;
19889;SDS011;10107;51.198;6.824;2023-08-12T12:55:22;1.42;;;1.30;;
19889;SDS011;10107;51.198;6.824;2023-08-12T12:59:25;1.40;;;1.30;;
19889;SDS011;10107;51.198;6.824;2023-08-12T13:03:26;3.03;;;1.80;;
19889;SDS011;10107;51.198;6.824;2023-08-12T13:07:28;2.45;;;2.03;;
19889;SDS011;10107;51.198;6.824;2023-08-12T13:11:31;2.20;;;2.00;;
19889;SDS011;10107;51.198;6.824;2023-08-12T13:19:37;2.63;;;2.42;;
19889;SDS011;10107;51.198;6.824;2023-08-12T13:23:38;3.28;;;2.60;;
19889;SDS011;10107;51.198;6.824;2023-08-12T13:27:40;2.63;;;2.42;;
19889;SDS011;10107;51.198;6.824;2023-08-12T13:31:43;2.60;;;2.40;;
19889;SDS011;10107;51.198;6.824;2023-08-12T13:35:46;3.35;;;2.55;;
19889;SDS011;10107;51.198;6.824;2023-08-12T13:39:47;3.30;;;3.00;;
19889;SDS011;10107;51.198;6.824;2023-08-12T13:43:49;3.40;;;3.00;;
19889;SDS011;10107;51.198;6.824;2023-08-12T13:47:52;3.88;;;3.25;;
19889;SDS011;10107;51.198;6.824;2023-08-12T13:51:53;3.80;;;3.30;;
19889;SDS011;10107;51.198;6.824;2023-08-12T13:55:55;3.20;;;2.90;;
19889;SDS011;10107;51.198;6.824;2023-08-12T13:59:56;3.20;;;2.90;;
19889;SDS011;10107;51.198;6.824;2023-08-12T14:03:59;4.85;;;2.58;;
19889;SDS011;10107;51.198;6.824;2023-08-12T14:08:01;2.58;;;2.38;;
19889;SDS011;10107;51.198;6.824;2023-08-12T14:12:03;2.83;;;2.30;;
19889;SDS011;10107;51.198;6.824;2023-08-12T14:16:05;2.10;;;1.90;;
19889;SDS011;10107;51.198;6.824;2023-08-12T14:20:09;2.20;;;2.00;;
19889;SDS011;10107;51.198;6.824;2023-08-12T14:24:11;2.47;;;2.10;;
19889;SDS011;10107;51.198;6.824;2023-08-12T14:28:13;2.30;;;2.10;;
19889;SDS011;10107;51.198;6.824;2023-08-12T14:32:15;2.10;;;1.90;;
19889;SDS011;10107;51.198;6.824;2023-08-12T14:36:20;3.03;;;2.05;;
19889;SDS011;10107;51.198;6.824;2023-08-12T14:40:21;2.42;;;1.90;;
19889;SDS011;10107;51.198;6.824;2023-08-12T14:44:23;1.70;;;1.60;;
19889;SDS011;10107;51.198;6.824;2023-08-12T14:48:24;2.60;;;1.67;;
19889;SDS011;10107;51.198;6.824;2023-08-12T14:52:27;3.25;;;1.90;;
19889;SDS011;10107;51.198;6.824;2023-08-12T14:56:29;1.50;;;1.40;;
19889;SDS011;10107;51.198;6.824;2023-08-12T15:00:30;3.78;;;1.70;;
19889;SDS011;10107;51.198;6.824;2023-08-12T15:04:33;1.92;;;1.48;;
19889;SDS011;10107;51.198;6.824;2023-08-12T15:08:36;1.33;;;1.23;;
19889;SDS011;10107;51.198;6.824;2023-08-12T15:16:40;1.73;;;1.60;;
19889;SDS011;10107;51.198;6.824;2023-08-12T15:20:41;2.70;;;1.35;;
19889;SDS011;10107;51.198;6.824;2023-08-12T15:24:45;1.27;;;1.17;;
19889;SDS011;10107;51.198;6.824;2023-08-12T15:28:46;1.98;;;1.20;;
19889;SDS011;10107;51.198;6.824;2023-08-12T15:32:48;2.33;;;1.38;;
19889;SDS011;10107;51.198;6.824;2023-08-12T15:36:50;2.15;;;1.17;;
19889;SDS011;10107;51.198;6.824;2023-08-12T15:40:53;1.40;;;1.30;;
19889;SDS011;10107;51.198;6.824;2023-08-12T15:44:55;2.03;;;1.38;;
19889;SDS011;10107;51.198;6.824;2023-08-12T15:48:56;1.52;;;1.42;;
19889;SDS011;10107;51.198;6.824;2023-08-12T15:52:58;1.73;;;1.63;;
19889;SDS011;10107;51.198;6.824;2023-08-12T15:57:01;1.83;;;1.40;;
19889;SDS011;10107;51.198;6.824;2023-08-12T16:01:02;2.10;;;1.90;;
19889;SDS011;10107;51.198;6.824;2023-08-12T16:05:04;2.20;;;1.85;;
19889;SDS011;10107;51.198;6.824;2023-08-12T16:09:06;3.78;;;2.00;;
19889;SDS011;10107;51.198;6.824;2023-08-12T16:13:11;4.57;;;1.90;;
19889;SDS011;10107;51.198;6.824;2023-08-12T16:17:12;2.20;;;2.00;;
19889;SDS011;10107;51.198;6.824;2023-08-12T16:21:14;2.63;;;2.00;;
19889;SDS011;10107;51.198;6.824;2023-08-12T16:25:15;2.30;;;2.10;;
19889;SDS011;10107;51.198;6.824;2023-08-12T16:29:18;2.70;;;1.90;;
19889;SDS011;10107;51.198;6.824;2023-08-12T16:33:20;2.08;;;1.92;;
19889;SDS011;10107;51.198;6.824;2023-08-12T16:37:21;3.50;;;2.20;;
19889;SDS011;10107;51.198;6.824;2023-08-12T16:41:24;3.15;;;2.25;;
19889;SDS011;10107;51.198;6.824;2023-08-12T16:45:27;2.53;;;2.33;;
19889;SDS011;10107;51.198;6.824;2023-08-12T16:49:28;4.18;;;2.53;;
19889;SDS011;10107;51.198;6.824;2023-08-12T16:53:30;3.00;;;2.28;;
19889;SDS011;10107;51.198;6.824;2023-08-12T16:57:31;2.80;;;2.55;;
19889;SDS011;10107;51.198;6.824;2023-08-12T17:01:34;2.03;;;1.83;;
19889;SDS011;10107;51.198;6.824;2023-08-12T17:05:36;3.65;;;2.33;;
19889;SDS011;10107;51.198;6.824;2023-08-12T17:09:38;2.40;;;2.10;;
19889;SDS011;10107;51.198;6.824;2023-08-12T17:13:39;2.97;;;2.35;;
19889;SDS011;10107;51.198;6.824;2023-08-12T17:17:43;3.53;;;2.13;;
19889;SDS011;10107;51.198;6.824;2023-08-12T17:21:45;2.90;;;2.20;;
19889;SDS011;10107;51.198;6.824;2023-08-12T17:25:46;3.08;;;2.10;;
19889;SDS011;10107;51.198;6.824;2023-08-12T17:29:48;2.25;;;2.03;;
19889;SDS011;10107;51.198;6.824;2023-08-12T17:33:51;3.17;;;2.13;;
19889;SDS011;10107;51.198;6.824;2023-08-12T17:37:52;3.38;;;2.03;;
19889;SDS011;10107;51.198;6.824;2023-08-12T17:41:54;2.55;;;1.98;;
19889;SDS011;10107;51.198;6.824;2023-08-12T17:45:56;2.95;;;1.83;;
19889;SDS011;10107;51.198;6.824;2023-08-12T17:49:59;2.35;;;1.63;;
19889;SDS011;10107;51.198;6.824;2023-08-12T17:54:00;3.20;;;1.65;;
19889;SDS011;10107;51.198;6.824;2023-08-12T17:58:02;2.17;;;1.77;;
19889;SDS011;10107;51.198;6.824;2023-08-12T18:02:04;2.67;;;1.50;;
19889;SDS011;10107;51.198;6.824;2023-08-12T18:06:07;4.30;;;1.90;;
19889;SDS011;10107;51.198;6.824;2023-08-12T18:10:08;2.95;;;1.98;;
19889;SDS011;10107;51.198;6.824;2023-08-12T18:14:10;3.05;;;1.85;;
19889;SDS011;10107;51.198;6.824;2023-08-12T18:18:12;2.83;;;1.50;;
19889;SDS011;10107;51.198;6.824;2023-08-12T18:22:15;2.78;;;1.70;;
19889;SDS011;10107;51.198;6.824;2023-08-12T18:26:16;2.72;;;1.90;;
19889;SDS011;10107;51.198;6.824;2023-08-12T18:30:18;2.15;;;1.60;;
19889;SDS011;10107;51.198;6.824;2023-08-12T18:34:19;2.40;;;1.60;;
19889;SDS011;10107;51.198;6.824;2023-08-12T18:38:22;2.25;;;1.70;;
19889;SDS011;10107;51.198;6.824;2023-08-12T18:42:24;2.65;;;1.58;;
19889;SDS011;10107;51.198;6.824;2023-08-12T18:46:26;2.53;;;2.08;;
19889;SDS011;10107;51.198;6.824;2023-08-12T18:50:27;4.72;;;2.08;;
19889;SDS011;10107;51.198;6.824;2023-08-12T18:54:30;2.78;;;1.83;;
19889;SDS011;10107;51.198;6.824;2023-08-12T18:58:32;2.92;;;1.95;;
19889;SDS011;10107;51.198;6.824;2023-08-12T19:02:33;2.72;;;2.20;;
19889;SDS011;10107;51.198;6.824;2023-08-12T19:06:35;2.60;;;2.20;;
19889;SDS011;10107;51.198;6.824;2023-08-12T19:10:38;2.85;;;2.00;;
19889;SDS011;10107;51.198;6.824;2023-08-12T19:14:42;3.47;;;2.50;;
19889;SDS011;10107;51.198;6.824;2023-08-12T19:18:44;3.85;;;2.97;;
19889;SDS011;10107;51.198;6.824;2023-08-12T19:22:46;5.25;;;3.05;;
19889;SDS011;10107;51.198;6.824;2023-08-12T19:26:49;5.30;;;2.92;;
19889;SDS011;10107;51.198;6.824;2023-08-12T19:30:51;3.80;;;2.85;;
19889;SDS011;10107;51.198;6.824;2023-08-12T19:34:52;5.47;;;3.17;;
19889;SDS011;10107;51.198;6.824;2023-08-12T19:38:54;4.38;;;3.40;;
19889;SDS011;10107;51.198;6.824;2023-08-12T19:42:57;5.68;;;3.22;;
19889;SDS011;10107;51.198;6.824;2023-08-12T19:46:58;4.75;;;3.35;;
19889;SDS011;10107;51.198;6.824;2023-08-12T19:51:00;4.32;;;3.17;;
19889;SDS011;10107;51.198;6.824;2023-08-12T19:55:02;4.47;;;2.95;;
19889;SDS011;10107;51.198;6.824;2023-08-12T19:59:05;4.72;;;3.30;;
19889;SDS011;10107;51.198;6.824;2023-08-12T20:03:06;5.70;;;3.67;;
19889;SDS011;10107;51.198;6.824;2023-08-12T20:07:08;4.22;;;3.45;;
19889;SDS011;10107;51.198;6.824;2023-08-12T20:11:10;4.95;;;3.70;;
19889;SDS011;10107;51.198;6.824;2023-08-12T20:15:13;4.93;;;3.88;;
19889;SDS011;10107;51.198;6.824;2023-08-12T20:19:15;5.63;;;4.35;;
19889;SDS011;10107;51.198;6.824;2023-08-12T20:23:17;5.55;;;4.70;;
19889;SDS011;10107;51.198;6.824;2023-08-12T20:27:18;6.15;;;4.88;;
19889;SDS011;10107;51.198;6.824;2023-08-12T20:31:21;6.47;;;5.07;;
19889;SDS011;10107;51.198;6.824;2023-08-12T20:35:23;6.55;;;5.30;;
19889;SDS011;10107;51.198;6.824;2023-08-12T20:39:25;6.65;;;4.80;;
19889;SDS011;10107;51.198;6.824;2023-08-12T20:43:26;7.90;;;5.53;;
19889;SDS011;10107;51.198;6.824;2023-08-12T20:47:29;7.47;;;4.97;;
19889;SDS011;10107;51.198;6.824;2023-08-12T20:51:31;11.63;;;5.17;;
19889;SDS011;10107;51.198;6.824;2023-08-12T20:55:32;8.52;;;4.72;;
19889;SDS011;10107;51.198;6.824;2023-08-12T20:59:34;6.20;;;4.82;;
19889;SDS011;10107;51.198;6.824;2023-08-12T21:03:37;7.68;;;5.32;;
19889;SDS011;10107;51.198;6.824;2023-08-12T21:07:39;7.50;;;5.03;;
19889;SDS011;10107;51.198;6.824;2023-08-12T21:11:40;6.72;;;4.95;;
19889;SDS011;10107;51.198;6.824;2023-08-12T21:15:42;8.00;;;5.15;;
19889;SDS011;10107;51.198;6.824;2023-08-12T21:19:45;7.53;;;5.13;;
19889;SDS011;10107;51.198;6.824;2023-08-12T21:23:46;6.33;;;4.90;;
19889;SDS011;10107;51.198;6.824;2023-08-12T21:27:48;7.47;;;4.90;;
19889;SDS011;10107;51.198;6.824;2023-08-12T21:31:50;6.20;;;4.72;;
19889;SDS011;10107;51.198;6.824;2023-08-12T21:35:53;6.40;;;4.60;;
19889;SDS011;10107;51.198;6.824;2023-08-12T21:39:54;4.50;;;3.20;;
19889;SDS011;10107;51.198;6.824;2023-08-12T21:43:56;7.18;;;4.60;;
19889;SDS011;10107;51.198;6.824;2023-08-12T21:47:58;10.20;;;5.07;;
19889;SDS011;10107;51.198;6.824;2023-08-12T21:52:01;5.90;;;4.20;;
19889;SDS011;10107;51.198;6.824;2023-08-12T21:56:03;7.00;;;4.25;;
19889;SDS011;10107;51.198;6.824;2023-08-12T22:00:05;8.23;;;4.82;;
19889;SDS011;10107;51.198;6.824;2023-08-12T22:04:11;6.93;;;5.05;;
19889;SDS011;10107;51.198;6.824;2023-08-12T22:08:14;6.28;;;4.78;;
19889;SDS011;10107;51.198;6.824;2023-08-12T22:12:16;6.53;;;5.00;;
19889;SDS011;10107;51.198;6.824;2023-08-12T22:16:18;5.97;;;4.55;;
19889;SDS011;10107;51.198;6.824;2023-08-12T22:20:20;5.43;;;4.18;;
19889;SDS011;10107;51.198;6.824;2023-08-12T22:24:23;5.65;;;4.07;;
19889;SDS011;10107;51.198;6.824;2023-08-12T22:28:24;3.88;;;2.95;;
19889;SDS011;10107;51.198;6.824;2023-08-12T22:32:26;7.13;;;4.47;;
19889;SDS011;10107;51.198;6.824;2023-08-12T22:36:28;7.65;;;4.53;;
19889;SDS011;10107;51.198;6.824;2023-08-12T22:40:31;6.07;;;4.43;;
19889;SDS011;10107;51.198;6.824;2023-08-12T22:44:33;4.38;;;2.97;;
19889;SDS011;10107;51.198;6.824;2023-08-12T22:48:35;6.85;;;4.45;;
19889;SDS011;10107;51.198;6.824;2023-08-12T22:52:36;9.10;;;4.65;;
19889;SDS011;10107;51.198;6.824;2023-08-12T22:56:39;5.63;;;4.57;;
19889;SDS011;10107;51.198;6.824;2023-08-12T23:04:43;6.75;;;5.10;;
19889;SDS011;10107;51.198;6.824;2023-08-12T23:08:45;9.45;;;5.45;;
19889;SDS011;10107;51.198;6.824;2023-08-12T23:12:48;7.70;;;5.55;;
19889;SDS011;10107;51.198;6.824;2023-08-12T23:16:50;5.57;;;4.68;;
19889;SDS011;10107;51.198;6.824;2023-08-12T23:20:51;7.18;;;5.45;;
19889;SDS011;10107;51.198;6.824;2023-08-12T23:24:53;8.23;;;5.47;;
19889;SDS011;10107;51.198;6.824;2023-08-12T23:28:56;6.97;;;5.68;;
19889;SDS011;10107;51.198;6.824;2023-08-12T23:32:57;7.30;;;5.47;;
19889;SDS011;10107;51.198;6.824;2023-08-12T23:36:59;6.88;;;5.43;;
19889;SDS011;10107;51.198;6.824;2023-08-12T23:41:01;7.05;;;5.80;;
19889;SDS011;10107;51.198;6.824;2023-08-12T23:45:05;7.88;;;5.72;;
19889;SDS011;10107;51.198;6.824;2023-08-12T23:49:07;8.57;;;5.78;;
19889;SDS011;10107;51.198;6.824;2023-08-12T23:53:09;9.48;;;5.93;;
19889;SDS011;10107;51.198;6.824;2023-08-12T23:57:11;8.77;;;6.45;;
